Impacts TAF Board INFO
FOR SITUATIONAL AWARENESS. NOT TO BE USED FOR FLIGHT PLANNING PURPOSES.
IDs:

KASD - Slidell Arpt, LA, US

Issued at 2340 UTC 18 Nov 2017
Updated at 0112 UTC 19 Nov 2017
Potential Impact None Slight Moderate High
Time0053Z 19/02Z 19/03Z 19/04Z 19/05Z 19/06Z 19/07Z 19/08Z 19/09Z 19/10Z 19/11Z 19/12Z 19/13Z 19/14Z>>
Type OBS PRVL PRVL PRVL PRVL PRVL PRVL PRVL PRVL PRVL PRVL PRVL PRVL PRVL
VIS 10 >6 >6 >6 >6 >6 >6 >6 >6 >6 >6 >6 >6 >6
CIG 33 90 45 45 60 60 60 -- -- -- -- -- -- --
Cover OVC BKN OVC OVC BKN BKN BKN SCT SCT SCT SCT SCT SCT SCT
FltCat VFR VFR VFR VFR VFR VFR VFR VFR VFR VFR VFR VFR VFR VFR
WX -- VCSH VCSH VCSH -- -- -- -- -- -- -- -- -- --
WDir VRB 230 300 300 340 340 340 360 360 360 360 360 360 360
WSpd 5 10 11 11 14 14 14 13 13 13 13 13 13 13
WGst -- -- 18 18 22 22 22 20 20 20 20 20 20 20

Raw TAF
KASD 182340Z 1900/1924 23010KT P6SM VCSH BKN090
  FM190300 30011G18KT P6SM VCSH OVC045
  FM190500 34014G22KT P6SM BKN060
  FM190800 36013G20KT P6SM SCT150
  FM192000 35009KT P6SM SKC


Raw METAR
KASD 190053Z AUTO VRB05KT 10SM BKN033 OVC040 24/19 A2986 RMK AO2 SLP110 T02390189
KASD 182353Z AUTO VRB05KT 10SM SCT038 BKN046 BKN060 24/18 A2985 RMK AO2 SLP106 T02390183 10272 20239 53004
KASD 182253Z AUTO 21008KT 10SM BKN080 24/18 A2983 RMK AO2 SLP102 T02440183

METAR Board
Radar Display
Forecast Discussion

FOR SITUATIONAL AWARENESS. NOT TO BE USED FOR FLIGHT PLANNING PURPOSES.